Terminal Aerodrome Forecast
Issued by NWS

Home | Current Version | Previous Version | Text Only | Print | Product List | Glossary On
Versions: 1 2 3 4 5 6 7 8 9 10 11 12 13 14 15 16 17 18 19 20 21 22 23 24 25 26 27 28 29 30 31 32
000
FTAK31 PANC 220401 AAC
TAFADQ
TAF AMD
PADQ 220401Z 2204/2224 12011KT 6SM -SN SCT015 OVC025
      TEMPO 2204/2206 3SM -SN
     FM220600 14015G22KT 3SM -RASN BR SCT008 OVC015
     FM221400 27010KT P6SM VCSH BKN035=

USA.gov is the U.S. government's official web portal to all federal, state and local government web resources and services.